Athens, Michigan
Current Conditions -  °F | °C
As of 1:54 PM on Thursday 30 Oct 2014 (Local Time) from KOEB Reporting Station
Overcast Overcast  
Wind Chill: 46°   Ceiling: 4500
Heat Index: 49°   Visibility: 10mi
Dew Point: 37°   Wind: 7mph
Humidity: 64%   Direction: 240°WSW
Pressure: 30.1"   Gusts: NA
Location:  42.09°N, 85.23°W
Report Text: KOEB 301754Z AUTO 24006KT 10SM SCT031 SCT038 OVC045 10/03 A3010 RMK AO2 T00950030 10095 20060
Loading
Personal Weather Stations






























Interactive Weather Map
Tropical Storm Tracking
New forecast layout! Learn more

10-Day Weather Forecast

Advertisements
Track Severe Weather on mobile